Flight Track Log - Related Links

Times and Time Zones

All times are in EDT time to prevent confusion due to time zone crossing. See the GGN7280 flight status page for this flight to view local times or setup timezone preferences in your user account.

Time Position Orientation Groundspeed Altitude Reporting Facility
EDT Latitude Longitude Course Direction KTS MPH feet Rate Location/Type
Tue 09:52:09 AM 43.6333 -79.6167 154° Southeast 150 173 2,000  Level Toronto Center
Tue 09:53:09 AM 43.5833 -79.5833 154° Southeast 180 207 3,100 1,250 Climbing Toronto Center
Tue 09:54:09 AM 43.5500 -79.5667 160° South 200 230 4,500 950 Climbing Toronto Center
Tue 09:55:09 AM 43.5333 -79.4667 103° East 230 265 5,000 700 Climbing Toronto Center
Tue 09:56:09 AM 43.5167 -79.3833 105° East 250 288 5,900 500 Climbing Toronto Center
Tue 09:57:09 AM 43.5000 -79.2833 103° East 240 276 6,000 50 Climbing Toronto Center
Tue 09:58:09 AM 43.5000 -79.2000 90° East 260 299 6,000 600 Level Toronto Center
Tue 09:59:09 AM 43.4833 -79.1000 103° East 250 288 7,200 1,250 Climbing Toronto Center
Tue 10:00:09 AM 43.4500 -79.0167 119° Southeast 240 276 8,500 1,450 Climbing Toronto Center
Tue 10:01:09 AM 43.4333 -78.9500 109° East 230 265 10,100 1,450 Climbing Toronto Center
Tue 10:02:09 AM 43.4000 -78.8833 125° Southeast 230 265 11,400 1,350 Climbing Toronto Center
Tue 10:03:09 AM 43.3667 -78.7833 115° Southeast 230 265 12,800 1,350 Climbing Toronto Center
Tue 10:04:09 AM 43.3333 -78.7167 124° Southeast 230 265 14,100 1,300 Climbing Toronto Center
Tue 10:05:09 AM 43.2833 -78.6500 136° Southeast 240 276 15,400 1,150 Climbing Toronto Center
Tue 10:06:09 AM 43.2500 -78.5833 124° Southeast 240 276 16,400 850 Climbing Toronto Center
Tue 10:07:09 AM 43.2000 -78.4833 124° Southeast 250 288 17,100 800 Climbing Toronto Center
Tue 10:08:09 AM 43.1667 -78.4000 119° Southeast 260 299 18,000 800 Climbing Toronto Center
Tue 10:09:09 AM 43.1167 -78.3333 136° Southeast 270 311 18,700 800 Climbing Toronto Center
Tue 10:10:09 AM 43.0833 -78.2333 115° Southeast 270 311 19,600 900 Climbing Toronto Center
Tue 10:11:09 AM 43.0333 -78.1500 129° Southeast 270 311 20,500 900 Climbing Toronto Center
Tue 10:12:09 AM 43.0167 -78.0667 105° East 270 311 21,400 800 Climbing Toronto Center
Tue 10:13:09 AM 43.0333 -77.9500 79° East 260 299 22,100 700 Climbing Toronto Center
Tue 10:14:09 AM 43.0333 -77.8500 90° East 260 299 22,800 450 Climbing Toronto Center
Tue 10:15:09 AM 43.0167 -77.7333 101° East 270 311 23,000 100 Climbing Toronto Center
Tue 10:16:09 AM 43.0167 -77.6500 90° East 280 322 23,000  Level Toronto Center
Tue 10:17:24 AM 43.0161 -77.5392 90° East 271 312 23,000  Level Cleveland Center
Tue 10:18:24 AM 43.0092 -77.4344 95° East 271 312 23,000  Level Cleveland Center
Tue 10:19:24 AM 43.0047 -77.3408 94° East 271 312 23,000  Level Cleveland Center
Tue 10:21:09 AM 42.9833 -77.1333 98° East 280 322 23,000  Level Toronto Center
Tue 10:21:42 AM 42.9911 -77.0906 76° East 277 319 23,000  Level Boston Center
Tue 10:22:42 AM 42.9850 -76.9878 95° East 277 319 23,000  Level Boston Center
Tue 10:23:42 AM 42.9786 -76.8850 95° East 277 319 23,000  Level Boston Center
Tue 10:24:42 AM 42.9678 -76.7850 98° East 277 319 23,000  Level Boston Center
Tue 10:25:42 AM 42.9633 -76.6797 93° East 277 319 23,000 -50 Level Boston Center
Tue 10:26:42 AM 42.9628 -76.5858 90° East 277 319 22,900 -50 Descending Boston Center
Tue 10:27:42 AM 42.9539 -76.4831 97° East 277 319 22,900 50 Level Boston Center
Tue 10:28:42 AM 42.9472 -76.3775 95° East 277 319 23,000 50 Climbing Boston Center
Tue 10:29:42 AM 42.9381 -76.2750 97° East 277 319 23,000 -50 Level Boston Center
Tue 10:30:42 AM 42.9292 -76.1722 97° East 277 319 22,900  Descending Boston Center
Tue 10:31:42 AM 42.9261 -76.0700 92° East 277 319 23,000 50 Climbing Boston Center
Tue 10:32:42 AM 42.9169 -75.9644 97° East 277 319 23,000  Level Boston Center
Tue 10:33:42 AM 42.9097 -75.8619 95° East 272 313 23,000  Level Boston Center
Tue 10:34:42 AM 42.9000 -75.7622 98° East 272 313 23,000  Level Boston Center
Tue 10:35:42 AM 42.8928 -75.6569 95° East 278 320 23,000  Level Boston Center
Tue 10:36:42 AM 42.8894 -75.5519 92° East 278 320 23,000 -500 Level Boston Center
Tue 10:37:42 AM 42.8797 -75.4464 97° East 278 320 22,000 -1,100 Descending Boston Center
Tue 10:38:42 AM 42.8722 -75.3356 95° East 284 327 20,800 -1,300 Descending Boston Center
Tue 10:39:42 AM 42.8644 -75.2247 95° East 289 333 19,400 -1,300 Descending Boston Center
Tue 10:40:42 AM 42.8581 -75.1394 96° East 289 333 18,200 -1,250 Descending Boston Center
Tue 10:41:42 AM 42.8467 -75.0114 97° East 289 333 16,900 -1,232 Descending Boston Center
Tue 10:42:34 AM 42.8406 -74.9036 94° East 287 330 15,900 -900 Descending Boston Center
Tue 10:43:42 AM 42.8283 -74.7956 99° East 289 333 15,100 -938 Descending Boston Center
Tue 10:44:42 AM 42.8181 -74.6792 97° East 284 327 13,900 -1,250 Descending Boston Center
Tue 10:45:42 AM 42.8117 -74.5797 95° East 284 327 12,600 -1,468 Descending Boston Center
Tue 10:47:01 AM 42.7872 -74.4289 102° East 290 334 10,500 -1,757 Descending Boston Center
Tue 10:48:02 AM 42.7642 -74.3236 107° East 277 319 8,500 -1,752 Descending Boston Center
Tue 10:48:54 AM 42.7486 -74.2497 106° East 276 318 7,200 -1,661 Descending Boston Center
Tue 10:49:54 AM 42.7233 -74.1414 108° East 265 305 5,400 -1,600 Descending Boston Center
Tue 10:50:54 AM 42.7056 -74.0592 106° East 265 305 4,000 -1,000 Descending Boston Center
Tue 10:51:54 AM 42.6756 -73.9736 115° Southeast 259 298 3,400 -300 Descending Boston Center
Tue 10:52:54 AM 42.6389 -73.9078 127° Southeast 236 272 3,400 -350 Level Boston Center
Tue 10:53:54 AM 42.5833 -73.8583 147° Southeast 222 255 2,700 -600 Descending Boston Center
Tue 10:54:54 AM 42.5861 -73.8022 86° East 162 186 2,200 -350 Descending Boston Center
Tue 10:55:54 AM 42.5908 -73.7542 82° East 162 186 2,000 -518 Descending Boston Center
Tue 10:57:13 AM 42.6964 -73.8044 341° North 160 184 1,000 -759 Descending Boston Center

Login

Don't have an account? Register now (free) for customized features, flight alerts, and more!